Time;durP1;ratioP1;P1;durP2;ratioP2;P2;SDS_P1;SDS_P2;PMS_P1;PMS_P2;Temp;Humidity;BMP_temperature;BMP_pressure;BME280_temperature;BME280_humidity;BME280_pressure;Samples;Min_cycle;Max_cycle;Signal;HPM_P1;HPM_P2
2023/04/01 00:01:46;;;;;;;3.90;1.10;;;;;;;9.60;65.02;94939.59;109113;1266;22596;-84
2023/04/01 00:04:21;;;;;;;1.60;0.60;;;;;;;9.56;65.02;94931.60;109115;1275;22655;-84
2023/04/01 00:07:19;;;;;;;1.50;0.60;;;;;;;9.54;65.15;94932.41;109096;1275;22550;-84
2023/04/01 00:09:52;;;;;;;2.60;0.70;;;;;;;9.47;65.28;94930.95;109010;1273;22492;-84
2023/04/01 00:12:24;;;;;;;1.50;0.80;;;;;;;9.43;65.37;94931.13;109099;1275;25268;-83
2023/04/01 00:14:56;;;;;;;1.90;0.70;;;;;;;9.39;65.43;94927.69;109121;1275;24222;-83
2023/04/01 00:17:32;;;;;;;2.70;0.70;;;;;;;9.34;65.56;94923.03;108086;1275;2089599;-83
2023/04/01 00:20:18;;;;;;;1.80;0.40;;;;;;;9.28;65.72;94926.51;109114;1274;23936;-84
2023/04/01 00:23:12;;;;;;;2.20;0.60;;;;;;;9.26;65.72;94932.64;109101;1260;25230;-83
2023/04/01 00:25:57;;;;;;;;;;;;;;;;;;;;;
2023/04/01 00:28:31;;;;;;;2.10;0.50;;;;;;;9.16;65.94;94928.76;105027;1273;5362025;-83
2023/04/01 00:31:14;;;;;;;2.70;0.70;;;;;;;9.13;66.05;94931.45;109061;1272;22689;-84
2023/04/01 00:34:01;;;;;;;1.40;0.60;;;;;;;9.09;66.16;94926.74;109140;1269;25268;-83
2023/04/01 00:37:00;;;;;;;2.40;0.40;;;;;;;8.99;66.37;94925.23;108510;1283;23613;-84
2023/04/01 00:39:34;;;;;;;1.50;0.60;;;;;;;8.91;66.55;94922.65;104481;1275;5342967;-83
2023/04/01 00:42:12;;;;;;;1.60;0.60;;;;;;;8.85;66.76;94926.17;109143;1275;22676;-84
2023/04/01 00:44:58;;;;;;;;;;;;;;;;;;;;;
2023/04/01 00:47:32;;;;;;;2.20;0.70;;;;;;;8.71;67.14;94923.13;109010;1275;22559;-84
2023/04/01 00:50:20;;;;;;;2.50;1.00;;;;;;;8.61;67.07;94927.33;109023;1275;103682;-84
2023/04/01 00:53:04;;;;;;;2.90;0.80;;;;;;;8.49;67.36;94926.77;109058;1275;22717;-83
2023/04/01 00:55:50;;;;;;;2.80;0.80;;;;;;;8.41;67.51;94931.03;109089;1269;25425;-83
2023/04/01 00:58:22;;;;;;;1.30;0.70;;;;;;;8.34;67.72;94935.05;105089;1254;5255333;-83
2023/04/01 01:00:55;;;;;;;2.10;0.70;;;;;;;8.28;67.81;94934.55;109060;1275;22585;-83
2023/04/01 01:03:50;;;;;;;2.60;1.00;;;;;;;8.19;67.91;94937.49;109052;1273;24890;-83
2023/04/01 01:06:39;;;;;;;2.10;0.80;;;;;;;8.13;68.01;94935.52;109125;1275;22594;-83
2023/04/01 01:09:30;;;;;;;1.20;0.60;;;;;;;8.07;68.16;94934.84;107488;1275;1879614;-83
2023/04/01 01:12:27;;;;;;;;;;;;;;;;;;;;;
2023/04/01 01:15:18;;;;;;;2.10;0.60;;;;;;;7.93;68.41;94935.77;109127;1275;22554;-83
2023/04/01 01:18:01;;;;;;;1.60;0.50;;;;;;;7.87;68.71;94934.76;108881;1272;24362;-83
2023/04/01 01:21:06;;;;;;;2.60;0.70;;;;;;;7.81;68.97;94936.95;109018;1254;22560;-83
2023/04/01 01:24:22;;;;;;;1.70;0.60;;;;;;;7.73;69.20;94940.31;109119;1275;22485;-83
2023/04/01 01:27:10;;;;;;;1.70;0.80;;;;;;;7.68;69.80;94940.23;109108;1270;22533;-83
2023/04/01 01:30:23;;;;;;;2.30;0.70;;;;;;;7.68;70.14;94941.89;107664;1270;1774791;-83
2023/04/01 01:33:44;;;;;;;;;;;;;;;;;;;;;
2023/04/01 01:36:45;;;;;;;3.70;1.10;;;;;;;7.61;70.43;94942.29;109033;1276;24312;-83
2023/04/01 01:39:40;;;;;;;1.60;0.80;;;;;;;7.58;71.11;94941.88;107595;1275;1870547;-83
2023/04/01 01:42:17;;;;;;;1.80;1.00;;;;;;;7.56;71.69;94937.59;109049;1276;22539;-83
2023/04/01 01:45:02;;;;;;;;;;;;;;;;;;;;;
2023/04/01 01:47:45;;;;;;;2.00;0.70;;;;;;;7.66;72.25;94940.80;109084;1264;22640;-83
2023/04/01 01:50:38;;;;;;;3.20;1.00;;;;;;;7.72;72.28;94944.66;107441;1276;2043520;-83
2023/04/01 01:53:18;;;;;;;2.50;0.90;;;;;;;7.83;72.36;94942.70;109088;1275;22531;-84
2023/04/01 01:56:07;;;;;;;2.10;1.10;;;;;;;7.96;72.37;94939.55;109109;1275;22921;-83
2023/04/01 01:58:51;;;;;;;1.90;0.90;;;;;;;8.06;72.35;94934.46;109070;1275;87328;-84
2023/04/01 02:01:38;;;;;;;1.80;0.80;;;;;;;8.11;72.25;94945.58;109122;1275;25993;-84
2023/04/01 02:04:41;;;;;;;2.70;0.70;;;;;;;8.13;72.00;94934.98;109069;1275;22524;-83
2023/04/01 02:07:33;;;;;;;1.30;0.80;;;;;;;8.13;71.88;94937.84;109162;1271;22554;-84
2023/04/01 02:10:40;;;;;;;;;;;;;;;;;;;;;
2023/04/01 02:13:24;;;;;;;2.60;1.10;;;;;;;8.06;71.98;94944.98;108531;1282;22555;-83
2023/04/01 02:16:07;;;;;;;2.90;1.20;;;;;;;7.99;72.10;94952.49;109135;1255;22528;-84
2023/04/01 02:18:50;;;;;;;2.80;1.10;;;;;;;7.96;72.86;94949.68;107474;1275;2002329;-84
2023/04/01 02:21:29;;;;;;;2.80;1.10;;;;;;;7.99;73.37;94952.33;109132;1273;23436;-84
2023/04/01 02:24:15;;;;;;;1.80;1.10;;;;;;;8.02;73.88;94953.96;109116;1275;23704;-84
2023/04/01 02:27:07;;;;;;;2.70;1.40;;;;;;;8.07;74.26;94954.22;109177;1254;22649;-83
2023/04/01 02:29:48;;;;;;;2.30;1.30;;;;;;;8.11;73.99;94962.84;104980;1273;5375062;-84
2023/04/01 02:32:20;;;;;;;1.70;1.10;;;;;;;8.12;74.11;94965.31;109071;1275;22492;-84
2023/04/01 02:35:05;;;;;;;5.60;1.30;;;;;;;8.13;74.42;94965.60;109148;1270;22470;-84
2023/04/01 02:37:48;;;;;;;;;;;;;;;;;;;;;
2023/04/01 02:40:19;;;;;;;2.50;1.20;;;;;;;8.11;74.58;94970.84;107691;1270;1874732;-84
2023/04/01 02:42:58;;;;;;;1.90;0.90;;;;;;;8.10;74.48;94968.45;109134;1275;22576;-84
2023/04/01 02:45:49;;;;;;;2.20;1.00;;;;;;;8.10;74.60;94971.09;109123;1275;22976;-84
2023/04/01 02:48:22;;;;;;;2.60;1.40;;;;;;;8.08;74.61;94969.65;109131;1260;22489;-84
2023/04/01 02:50:57;;;;;;;2.30;0.90;;;;;;;8.06;74.59;94971.82;108581;1276;175193;-83
2023/04/01 02:53:29;;;;;;;1.40;1.00;;;;;;;8.04;74.69;94969.08;108980;1270;24183;-83
2023/04/01 02:56:14;;;;;;;2.70;1.20;;;;;;;8.01;74.70;94968.08;109126;1275;22795;-83
2023/04/01 02:58:57;;;;;;;2.20;1.20;;;;;;;8.00;74.70;94967.89;109079;1275;23116;-83
2023/04/01 03:01:33;;;;;;;2.90;1.10;;;;;;;7.99;74.77;94967.91;109110;1275;22627;-83
2023/04/01 03:04:05;;;;;;;3.30;1.00;;;;;;;7.98;74.75;94971.79;109123;1275;23721;-84
2023/04/01 03:06:56;;;;;;;1.80;1.00;;;;;;;7.97;74.61;94971.88;109113;1275;22604;-83
2023/04/01 03:09:44;;;;;;;1.70;1.00;;;;;;;7.90;74.76;94969.05;107253;1275;2308096;-83
2023/04/01 03:12:31;;;;;;;2.50;1.10;;;;;;;7.88;74.82;94974.00;109080;1275;22272;-83
2023/04/01 03:15:00;;;;;;;1.50;1.10;;;;;;;7.85;74.91;94972.27;109110;1275;22566;-83
2023/04/01 03:17:46;;;;;;;2.50;1.00;;;;;;;7.83;75.08;94972.32;109096;1275;22528;-83
2023/04/01 03:20:33;;;;;;;2.40;1.00;;;;;;;7.83;75.14;94971.27;109042;1275;86009;-84
2023/04/01 03:23:20;;;;;;;2.00;1.00;;;;;;;7.81;75.28;94973.89;109153;1275;22521;-83
2023/04/01 03:26:29;;;;;;;1.70;0.80;;;;;;;7.82;75.52;94970.98;109034;1275;22543;-84
2023/04/01 03:29:05;;;;;;;2.70;1.30;;;;;;;7.85;75.93;94970.21;109137;1270;22577;-84
2023/04/01 03:32:08;;;;;;;1.20;0.60;;;;;;;7.90;76.02;94970.95;109181;1275;22508;-83
2023/04/01 03:34:42;;;;;;;1.20;0.70;;;;;;;7.98;75.88;94975.55;109126;1273;22516;-83
2023/04/01 03:37:35;;;;;;;1.20;0.60;;;;;;;8.02;75.72;94977.03;109095;1275;22539;-84
2023/04/01 03:40:18;;;;;;;2.10;0.80;;;;;;;8.05;75.86;94969.73;107654;1272;1850307;-83
2023/04/01 03:42:52;;;;;;;1.90;0.90;;;;;;;8.08;75.98;94979.25;109157;1275;22784;-84
2023/04/01 03:45:23;;;;;;;2.40;1.00;;;;;;;8.12;75.80;94977.21;109129;1275;24162;-83
2023/04/01 03:47:55;;;;;;;3.10;0.90;;;;;;;8.16;75.75;94976.73;109141;1275;23468;-83
2023/04/01 03:50:27;;;;;;;3.90;1.40;;;;;;;8.15;75.78;94974.15;104943;1270;5385716;-83
2023/04/01 03:53:12;;;;;;;1.50;0.80;;;;;;;8.14;75.92;94973.27;109094;1273;23095;-83
2023/04/01 03:56:03;;;;;;;;;;;;;;;;;;;;;
2023/04/01 03:58:41;;;;;;;1.90;1.10;;;;;;;8.13;75.90;94984.20;109091;1275;22531;-84
2023/04/01 04:01:28;;;;;;;2.10;1.10;;;;;;;8.14;76.01;94987.38;109113;1275;32244;-84
2023/04/01 04:04:10;;;;;;;3.60;1.40;;;;;;;8.17;75.88;94988.27;109104;1275;23825;-84
2023/04/01 04:06:56;;;;;;;2.30;1.30;;;;;;;8.15;75.91;94989.52;109103;1275;22498;-83
2023/04/01 04:09:38;;;;;;;1.50;0.90;;;;;;;8.12;76.08;94991.25;108922;1267;101836;-84
2023/04/01 04:12:20;;;;;;;3.80;1.20;;;;;;;8.14;76.12;94992.78;109089;1270;22571;-84
2023/04/01 04:15:24;;;;;;;2.80;0.90;;;;;;;8.14;76.02;94997.30;109105;1272;25056;-84
2023/04/01 04:18:01;;;;;;;2.20;1.30;;;;;;;8.15;76.10;94996.02;109056;1275;22584;-83
2023/04/01 04:20:52;;;;;;;3.60;1.10;;;;;;;8.17;75.97;94998.04;107319;1270;2282253;-83
2023/04/01 04:23:40;;;;;;;2.20;1.10;;;;;;;8.17;75.89;95000.21;109045;1275;24885;-83
2023/04/01 04:26:31;;;;;;;1.30;0.80;;;;;;;8.16;75.81;94999.69;109125;1270;25423;-83
2023/04/01 04:29:24;;;;;;;2.40;1.20;;;;;;;8.14;75.88;94998.62;109100;1269;22642;-84
2023/04/01 04:32:32;;;;;;;2.50;1.00;;;;;;;8.11;75.91;94994.38;109141;1269;22517;-83
2023/04/01 04:35:06;;;;;;;2.60;1.10;;;;;;;8.10;76.04;94997.33;108930;1275;22583;-84
2023/04/01 04:38:06;;;;;;;2.90;1.10;;;;;;;8.10;76.21;94998.97;109151;1270;23880;-83
2023/04/01 04:40:55;;;;;;;3.60;1.30;;;;;;;8.11;76.32;95000.83;105054;1275;5370087;-83
2023/04/01 04:43:36;;;;;;;2.80;1.30;;;;;;;8.11;76.27;94999.14;109120;1275;23246;-83
2023/04/01 04:46:38;;;;;;;;;;;;;;;;;;;;;
2023/04/01 04:49:32;;;;;;;3.80;1.60;;;;;;;8.12;76.54;94994.66;108659;1275;23709;-84
2023/04/01 04:52:37;;;;;;;4.50;1.60;;;;;;;8.13;76.73;94992.12;107194;1267;2103304;-84
2023/04/01 04:55:26;;;;;;;2.80;1.50;;;;;;;8.12;76.90;94994.51;109112;1275;24222;-83
2023/04/01 04:57:58;;;;;;;1.90;1.50;;;;;;;8.13;76.87;94995.97;109124;1275;23399;-84
2023/04/01 05:00:39;;;;;;;2.90;1.70;;;;;;;8.15;77.10;94994.02;108948;1271;117140;-84
2023/04/01 05:03:48;;;;;;;3.20;1.40;;;;;;;8.19;77.20;94994.10;109046;1275;22543;-84
2023/04/01 05:06:48;;;;;;;2.60;1.40;;;;;;;8.26;77.29;94992.80;108573;1282;22544;-84
2023/04/01 05:09:45;;;;;;;2.50;1.50;;;;;;;8.91;78.25;94990.94;108202;1282;22672;-84
2023/04/01 05:12:37;;;;;;;1.80;1.20;;;;;;;9.93;76.39;94991.42;104259;1279;5359836;-84
2023/04/01 05:15:08;;;;;;;2.30;1.30;;;;;;;9.96;74.69;94989.11;108536;1276;22538;-83
2023/04/01 05:18:11;;;;;;;;;;;;;;;;;;;;;
2023/04/01 05:21:01;;;;;;;2.80;1.20;;;;;;;9.62;73.88;94997.39;104894;1274;5373727;-84
2023/04/01 05:23:36;;;;;;;3.70;1.50;;;;;;;9.45;73.76;94999.67;109105;1275;24203;-84
2023/04/01 05:26:13;;;;;;;2.80;1.00;;;;;;;9.19;74.50;95005.45;109101;1275;25275;-83
2023/04/01 05:28:50;;;;;;;3.20;0.80;;;;;;;8.92;75.42;95005.88;109159;1275;22530;-84
2023/04/01 05:31:28;;;;;;;3.30;1.50;;;;;;;8.68;76.44;95006.59;107373;1272;2089249;-84
2023/04/01 05:34:10;;;;;;;2.10;1.20;;;;;;;8.54;77.33;95007.52;109011;1276;23642;-84
2023/04/01 05:36:46;;;;;;;2.00;1.10;;;;;;;8.44;78.28;95011.39;109102;1275;23709;-84
2023/04/01 05:39:24;;;;;;;2.10;1.10;;;;;;;8.36;78.99;95011.79;109175;1275;22582;-84
2023/04/01 05:42:03;;;;;;;4.30;1.20;;;;;;;8.28;79.79;95009.80;107760;1264;1878230;-84
2023/04/01 05:44:55;;;;;;;1.70;1.00;;;;;;;8.22;80.26;95017.25;109144;1275;22500;-84
2023/04/01 05:47:41;;;;;;;;;;;;;;;;;;;;;
2023/04/01 05:50:26;;;;;;;2.40;1.30;;;;;;;8.16;81.24;95014.95;109099;1272;22546;-85
2023/04/01 05:53:12;;;;;;;3.20;1.50;;;;;;;8.16;81.62;95018.27;108771;1275;22468;-85
2023/04/01 05:55:52;;;;;;;4.30;1.70;;;;;;;8.13;81.81;95011.69;109169;1275;23779;-84
2023/04/01 05:58:35;;;;;;;4.00;1.80;;;;;;;8.14;81.78;95013.23;109157;1269;24288;-85
2023/04/01 06:01:27;;;;;;;;;;;;;;;;;;;;;
2023/04/01 06:03:59;;;;;;;4.30;1.50;;;;;;;8.09;82.16;95008.38;109032;1272;23122;-85
2023/04/01 06:06:51;;;;;;;2.50;1.20;;;;;;;8.00;83.03;95016.18;109152;1268;22580;-84
2023/04/01 06:09:35;;;;;;;2.50;1.30;;;;;;;7.94;83.13;95021.88;109048;1274;22514;-84
2023/04/01 06:12:42;;;;;;;2.70;1.50;;;;;;;7.95;83.55;95018.94;108988;1269;70071;-84
2023/04/01 06:15:28;;;;;;;2.60;1.50;;;;;;;8.10;83.62;95018.01;109180;1275;23630;-85
2023/04/01 06:18:36;;;;;;;1.50;1.20;;;;;;;8.75;84.70;95018.11;109100;1273;22487;-84
2023/04/01 06:21:40;;;;;;;2.60;1.80;;;;;;;10.15;83.06;95019.45;104882;1275;5407495;-84
2023/04/01 06:24:52;;;;;;;3.50;2.00;;;;;;;10.93;79.74;95017.67;109017;1275;24247;-84
2023/04/01 06:27:44;;;;;;;5.90;3.50;;;;;;;10.87;78.74;95021.11;109104;1267;24318;-84
2023/04/01 06:30:37;;;;;;;4.70;2.50;;;;;;;13.06;79.14;95011.37;109109;1275;22564;-84
2023/04/01 06:33:43;;;;;;;;;;;;;;;;;;;;;
2023/04/01 06:36:53;;;;;;;;;;;;;;;;;;;;;
2023/04/01 06:39:59;;;;;;;3.00;1.90;;;;;;;13.59;65.74;95011.42;108996;1276;22789;-84
2023/04/01 06:43:15;;;;;;;4.60;2.30;;;;;;;12.36;68.02;95009.76;109051;1271;80894;-84
2023/04/01 06:46:12;;;;;;;3.00;1.70;;;;;;;12.09;69.40;95015.94;109050;1275;24318;-84
2023/04/01 06:49:19;;;;;;;2.20;1.50;;;;;;;12.80;70.72;95010.27;109122;1269;22539;-85
2023/04/01 06:52:20;;;;;;;3.20;1.90;;;;;;;14.66;67.51;95002.77;105179;1269;5156478;-85
2023/04/01 06:55:37;;;;;;;3.80;1.70;;;;;;;14.50;65.94;95008.80;109097;1264;22641;-85
2023/04/01 06:58:30;;;;;;;2.80;1.70;;;;;;;16.11;63.89;95000.46;109147;1272;22470;-85
2023/04/01 07:01:15;;;;;;;3.80;1.60;;;;;;;17.10;61.71;94998.62;109139;1275;22553;-85
2023/04/01 07:04:04;;;;;;;2.70;1.70;;;;;;;16.72;57.62;94997.73;109123;1275;22488;-84
2023/04/01 07:06:51;;;;;;;4.50;1.70;;;;;;;15.34;58.63;94998.48;109131;1275;26045;-86
2023/04/01 07:09:35;;;;;;;3.90;2.10;;;;;;;14.28;60.35;94995.27;109061;1275;24208;-84
2023/04/01 07:12:11;;;;;;;2.90;1.70;;;;;;;13.52;61.18;94996.21;104964;1269;5362756;-85
2023/04/01 07:14:58;;;;;;;3.20;1.70;;;;;;;13.22;62.81;94996.98;109048;1275;22582;-85
2023/04/01 07:17:44;;;;;;;2.60;1.40;;;;;;;13.26;63.42;94996.17;109122;1275;22723;-84
2023/04/01 07:20:35;;;;;;;2.90;0.80;;;;;;;12.79;62.24;94996.36;109099;1275;23341;-85
2023/04/01 07:23:18;;;;;;;2.10;1.40;;;;;;;11.94;62.21;95003.29;108947;1269;106865;-84
2023/04/01 07:26:02;;;;;;;3.10;1.00;;;;;;;11.51;63.97;95002.83;109143;1275;23760;-84
2023/04/01 07:28:38;;;;;;;3.80;1.40;;;;;;;11.09;64.91;95007.93;109141;1275;24208;-84
2023/04/01 07:31:21;;;;;;;3.30;1.30;;;;;;;10.74;66.00;95012.95;109133;1269;22540;-85
2023/04/01 07:34:11;;;;;;;1.50;1.10;;;;;;;10.65;66.84;95013.73;108941;1275;137044;-84
2023/04/01 07:37:01;;;;;;;2.40;1.30;;;;;;;10.56;67.16;95006.06;109031;1276;23995;-83
2023/04/01 07:39:48;;;;;;;3.30;1.40;;;;;;;10.66;67.50;95009.03;109141;1273;25951;-83
2023/04/01 07:42:41;;;;;;;3.30;1.60;;;;;;;10.91;67.71;95006.15;109070;1269;46882;-83
2023/04/01 07:45:23;;;;;;;3.40;1.60;;;;;;;12.05;67.98;95004.76;109123;1275;22670;-84
2023/04/01 07:48:10;;;;;;;4.10;1.70;;;;;;;13.30;64.39;95009.50;109113;1275;22570;-84
2023/04/01 07:50:57;;;;;;;2.40;1.40;;;;;;;15.26;61.49;95005.29;109102;1275;24283;-83
2023/04/01 07:53:48;;;;;;;2.30;1.30;;;;;;;15.92;54.95;95007.35;104990;1271;5322291;-83
2023/04/01 07:56:47;;;;;;;3.00;1.60;;;;;;;14.25;56.93;95018.19;109137;1275;23303;-84
2023/04/01 07:59:36;;;;;;;3.70;1.60;;;;;;;13.56;58.89;95016.94;109152;1275;23735;-84
2023/04/01 08:02:18;;;;;;;5.60;2.50;;;;;;;13.48;60.18;95014.95;106637;1267;3347533;-84
2023/04/01 08:04:56;;;;;;;5.40;2.80;;;;;;;13.22;60.95;95017.34;109183;1260;22478;-84
2023/04/01 08:07:31;;;;;;;;;;;;;;;12.87;61.32;95017.67;109165;1275;23798;-83
2023/04/01 08:10:13;;;;;;;5.10;2.70;;;;;;;12.45;62.20;95018.58;109143;1275;22521;-83
2023/04/01 08:13:00;;;;;;;4.60;2.50;;;;;;;12.22;63.09;95019.59;107716;1275;2082504;-83
2023/04/01 08:15:37;;;;;;;5.20;2.70;;;;;;;12.13;63.72;95021.73;109160;1275;22568;-82
2023/04/01 08:18:20;;;;;;;5.40;2.40;;;;;;;11.98;63.83;95020.14;109080;1275;22560;-83
2023/04/01 08:21:02;;;;;;;3.40;1.80;;;;;;;11.75;63.66;95018.98;109181;1268;22589;-84
2023/04/01 08:23:41;;;;;;;4.50;2.20;;;;;;;11.65;64.07;95015.34;109074;1272;68594;-83
2023/04/01 08:26:22;;;;;;;2.90;1.50;;;;;;;11.51;64.33;95013.75;109155;1275;22523;-83
2023/04/01 08:29:04;;;;;;;2.50;1.70;;;;;;;11.28;64.77;95015.05;109141;1275;22492;-83
2023/04/01 08:31:52;;;;;;;2.70;1.40;;;;;;;11.27;65.13;95012.09;109163;1275;22495;-83
2023/04/01 08:34:26;;;;;;;2.80;1.60;;;;;;;11.22;65.11;95012.43;109059;1275;22585;-83
2023/04/01 08:37:03;;;;;;;4.00;1.70;;;;;;;11.20;65.79;95014.09;109169;1275;22485;-83
2023/04/01 08:39:36;;;;;;;3.50;1.70;;;;;;;11.25;65.73;95015.58;109157;1269;22544;-83
2023/04/01 08:42:42;;;;;;;2.40;1.40;;;;;;;11.27;65.67;95014.46;109030;1269;58698;-83
2023/04/01 08:45:41;;;;;;;3.70;1.70;;;;;;;11.23;65.94;95012.84;109144;1269;22572;-83
2023/04/01 08:48:50;;;;;;;3.50;1.70;;;;;;;11.30;66.26;95008.51;109082;1275;22758;-83
2023/04/01 08:51:57;;;;;;;3.60;1.70;;;;;;;11.41;65.85;95008.55;109089;1275;22541;-83
2023/04/01 08:55:02;;;;;;;;;;;;;;;;;;;;;
2023/04/01 08:57:46;;;;;;;1.90;1.30;;;;;;;11.22;65.31;95007.59;109067;1265;22527;-83
2023/04/01 09:00:28;;;;;;;2.40;1.50;;;;;;;11.05;65.44;95007.46;109058;1275;22561;-83
2023/04/01 09:03:36;;;;;;;3.60;1.50;;;;;;;10.84;66.10;95007.61;107721;1267;1805373;-83
2023/04/01 09:06:31;;;;;;;3.00;1.50;;;;;;;10.74;66.13;95013.42;109011;1275;22485;-83
2023/04/01 09:09:24;;;;;;;4.70;1.30;;;;;;;10.63;66.38;95013.90;109139;1269;22948;-83
2023/04/01 09:12:21;;;;;;;3.70;1.50;;;;;;;10.58;66.71;95013.84;109140;1275;22559;-83
2023/04/01 09:15:31;;;;;;;3.40;1.60;;;;;;;10.59;67.25;95017.92;109088;1275;22606;-83
2023/04/01 09:18:52;;;;;;;2.60;1.60;;;;;;;10.61;67.00;95016.94;109184;1275;22549;-84
2023/04/01 09:21:51;;;;;;;3.70;1.90;;;;;;;10.69;67.72;95010.95;109007;1275;23328;-83
2023/04/01 09:24:59;;;;;;;3.40;1.90;;;;;;;10.84;67.60;95011.48;107666;1275;1940747;-83
2023/04/01 09:27:46;;;;;;;3.70;1.60;;;;;;;10.99;66.83;95008.42;109049;1269;22571;-83
2023/04/01 09:30:49;;;;;;;3.90;1.60;;;;;;;10.94;66.47;95013.83;109126;1275;22545;-83
2023/04/01 09:34:01;;;;;;;6.10;2.20;;;;;;;10.96;66.70;95009.60;107521;1275;2016949;-83
2023/04/01 09:37:00;;;;;;;3.10;1.70;;;;;;;11.04;65.78;95006.28;109071;1275;23869;-84
2023/04/01 09:39:37;;;;;;;4.70;1.40;;;;;;;10.99;64.71;95008.15;109134;1275;22582;-83
2023/04/01 09:42:34;;;;;;;4.60;2.30;;;;;;;10.89;64.40;95010.03;109093;1275;22572;-83
2023/04/01 09:45:12;;;;;;;4.70;2.50;;;;;;;10.83;64.62;95011.52;109091;1268;22561;-84
2023/04/01 09:47:54;;;;;;;7.20;4.80;;;;;;;10.86;65.38;95007.39;109160;1275;22685;-83
2023/04/01 09:50:46;;;;;;;13.10;7.20;;;;;;;10.95;65.22;95013.21;109165;1275;22773;-83
2023/04/01 09:53:37;;;;;;;5.50;3.20;;;;;;;10.94;64.63;95012.80;107769;1272;1829243;-83
2023/04/01 09:56:51;;;;;;;3.90;2.00;;;;;;;10.96;64.78;95018.60;109080;1275;22701;-84
2023/04/01 09:59:49;;;;;;;4.30;1.90;;;;;;;11.02;64.61;95023.71;109003;1269;22550;-83
2023/04/01 10:02:59;;;;;;;4.50;1.80;;;;;;;11.03;64.41;95023.76;109133;1275;25052;-83
2023/04/01 10:06:14;;;;;;;2.00;1.40;;;;;;;11.08;64.61;95024.16;109120;1275;22609;-84
2023/04/01 10:09:17;;;;;;;2.40;1.30;;;;;;;11.12;64.23;95024.34;109013;1275;22487;-83
2023/04/01 10:12:16;;;;;;;2.70;1.40;;;;;;;11.12;63.97;95023.71;109089;1275;22540;-83
2023/04/01 10:15:29;;;;;;;1.80;1.40;;;;;;;11.14;63.22;95019.81;108851;1276;120568;-84
2023/04/01 10:18:23;;;;;;;3.60;2.20;;;;;;;11.24;63.52;95022.80;108998;1276;22483;-83
2023/04/01 10:21:38;;;;;;;2.30;1.50;;;;;;;11.23;63.18;95016.34;108990;1276;22565;-84
2023/04/01 10:24:47;;;;;;;4.90;2.70;;;;;;;11.26;63.59;95019.70;108512;1275;52781;-83
2023/04/01 10:27:48;;;;;;;4.20;2.60;;;;;;;11.51;63.64;95021.27;108518;1280;25973;-83
2023/04/01 10:30:55;;;;;;;4.50;1.70;;;;;;;11.77;62.95;95015.23;106973;1275;2671071;-83
2023/04/01 10:33:50;;;;;;;3.50;1.80;;;;;;;11.78;61.54;95019.23;109020;1272;104331;-83
2023/04/01 10:36:51;;;;;;;1.60;0.90;;;;;;;11.82;61.54;95015.77;109138;1262;22533;-84
2023/04/01 10:39:50;;;;;;;3.10;1.40;;;;;;;12.20;61.43;95012.63;108995;1268;22499;-83
2023/04/01 10:42:59;;;;;;;4.40;2.60;;;;;;;12.56;60.74;95015.88;109108;1275;22488;-83
2023/04/01 10:46:05;;;;;;;2.50;1.60;;;;;;;12.43;58.86;95015.06;109126;1268;22570;-83
2023/04/01 10:49:15;;;;;;;2.00;1.40;;;;;;;12.09;58.38;95016.41;109090;1275;22610;-83
2023/04/01 10:52:23;;;;;;;4.40;1.90;;;;;;;11.75;59.00;95017.23;108938;1275;23845;-83
2023/04/01 10:55:15;;;;;;;2.80;1.90;;;;;;;11.68;59.24;95025.31;109042;1269;62050;-82
2023/04/01 10:58:39;;;;;;;;;;;;;;;;;;;;;
2023/04/01 11:01:46;;;;;;;3.90;2.90;;;;;;;11.64;59.58;95037.73;109010;1275;22688;-83
2023/04/01 11:05:08;;;;;;;2.00;1.50;;;;;;;11.63;60.33;95035.58;108938;1269;123835;-83
2023/04/01 11:08:36;;;;;;;2.50;1.50;;;;;;;11.67;61.19;95035.73;109137;1269;22479;-84
2023/04/01 11:11:58;;;;;;;2.50;1.50;;;;;;;11.69;61.29;95036.80;108550;1282;22565;-83
2023/04/01 11:14:54;;;;;;;3.00;1.60;;;;;;;11.77;61.93;95036.70;108481;1274;59200;-83
2023/04/01 11:18:14;;;;;;;2.40;1.60;;;;;;;11.89;61.83;95037.23;109113;1272;24228;-83
2023/04/01 11:21:34;;;;;;;2.50;1.30;;;;;;;12.07;61.78;95034.16;108532;1282;24326;-83
2023/04/01 11:24:30;;;;;;;2.20;1.20;;;;;;;12.21;60.56;95034.49;108460;1281;121414;-83
2023/04/01 11:27:19;;;;;;;2.20;1.40;;;;;;;12.15;60.46;95038.87;108497;1282;24257;-83
2023/04/01 11:30:03;;;;;;;3.10;1.40;;;;;;;12.13;60.88;95031.61;109013;1275;22890;-83
2023/04/01 11:32:52;;;;;;;1.90;1.10;;;;;;;12.03;60.41;95028.40;109130;1275;22694;-84
2023/04/01 11:36:06;;;;;;;3.30;1.90;;;;;;;11.80;60.58;95032.80;109128;1275;22579;-83
2023/04/01 11:39:02;;;;;;;2.40;1.50;;;;;;;11.60;61.26;95035.42;108949;1272;22535;-83
2023/04/01 11:41:52;;;;;;;2.60;1.50;;;;;;;11.55;61.77;95030.00;109088;1275;25285;-83
2023/04/01 11:44:26;;;;;;;2.80;1.40;;;;;;;11.70;62.48;95039.86;107785;1252;1783752;-84
2023/04/01 11:47:32;;;;;;;2.10;1.40;;;;;;;11.86;61.75;95039.05;109123;1267;22569;-84
2023/04/01 11:50:22;;;;;;;2.10;1.60;;;;;;;11.87;61.83;95042.57;109143;1265;24252;-83
2023/04/01 11:53:17;;;;;;;2.20;1.50;;;;;;;11.96;62.18;95041.96;107620;1269;1837388;-83
2023/04/01 11:56:06;;;;;;;2.10;1.60;;;;;;;12.09;62.43;95040.41;109104;1275;22524;-83
2023/04/01 11:59:09;;;;;;;2.70;1.80;;;;;;;12.26;62.09;95046.44;109076;1268;23865;-83
2023/04/01 12:01:54;;;;;;;2.60;1.50;;;;;;;12.49;62.41;95041.62;108997;1275;22612;-83
2023/04/01 12:05:01;;;;;;;2.10;1.90;;;;;;;12.92;61.94;95038.52;109038;1272;41222;-83
2023/04/01 12:08:10;;;;;;;2.90;1.60;;;;;;;13.19;60.98;95036.92;109111;1268;22478;-83
2023/04/01 12:10:54;;;;;;;1.60;1.20;;;;;;;13.47;59.61;95038.63;108606;1281;22509;-83
2023/04/01 12:13:39;;;;;;;1.40;1.20;;;;;;;13.25;58.65;95039.02;108592;1274;162413;-83
2023/04/01 12:16:48;;;;;;;1.50;1.00;;;;;;;12.86;58.22;95037.68;109140;1275;25309;-84
2023/04/01 12:19:29;;;;;;;2.80;2.10;;;;;;;12.54;59.12;95051.14;109066;1269;22525;-84
2023/04/01 12:22:42;;;;;;;3.10;1.40;;;;;;;12.36;59.52;95046.75;109130;1265;23260;-84
2023/04/01 12:25:39;;;;;;;2.70;1.80;;;;;;;12.31;60.17;95046.79;109090;1275;69281;-84
2023/04/01 12:28:24;;;;;;;1.60;1.00;;;;;;;12.40;59.33;95047.88;109085;1275;22562;-84
2023/04/01 12:31:26;;;;;;;2.80;1.80;;;;;;;12.34;59.78;95052.13;109105;1268;23207;-84
2023/04/01 12:34:23;;;;;;;2.10;1.50;;;;;;;12.30;60.07;95050.86;107735;1275;1785508;-85
2023/04/01 12:37:23;;;;;;;1.20;0.80;;;;;;;12.21;59.87;95058.20;108976;1275;23190;-84
2023/04/01 12:40:31;;;;;;;1.90;1.10;;;;;;;12.05;60.21;95061.58;109117;1275;23771;-85
2023/04/01 12:43:31;;;;;;;2.20;1.30;;;;;;;11.94;60.90;95058.14;107698;1268;1792620;-84
2023/04/01 12:46:19;;;;;;;2.30;1.30;;;;;;;11.88;61.90;95068.98;109080;1275;22461;-84
2023/04/01 12:49:33;;;;;;;2.20;1.50;;;;;;;11.99;62.04;95065.66;109054;1275;25317;-84
2023/04/01 12:52:15;;;;;;;2.40;1.40;;;;;;;12.28;62.22;95066.82;109098;1269;23094;-84
2023/04/01 12:55:28;;;;;;;1.60;1.00;;;;;;;12.48;61.48;95059.54;109146;1271;72763;-84
2023/04/01 12:58:39;;;;;;;3.60;1.70;;;;;;;12.37;60.89;95066.35;108547;1282;22517;-84
2023/04/01 13:02:02;;;;;;;2.80;2.00;;;;;;;12.36;60.74;95060.55;109001;1276;22520;-84
2023/04/01 13:05:04;;;;;;;2.20;1.00;;;;;;;12.34;61.19;95062.90;107716;1275;1804973;-84
2023/04/01 13:08:22;;;;;;;1.30;0.90;;;;;;;12.21;60.16;95063.23;109141;1275;25629;-84
2023/04/01 13:11:11;;;;;;;1.10;0.90;;;;;;;12.16;61.37;95066.98;108985;1275;22536;-84
2023/04/01 13:14:23;;;;;;;2.40;1.70;;;;;;;12.14;61.18;95064.94;108996;1275;82001;-84
2023/04/01 13:16:58;;;;;;;3.20;1.00;;;;;;;11.97;61.05;95069.70;109071;1269;22496;-84
2023/04/01 13:19:38;;;;;;;1.60;1.30;;;;;;;11.84;61.21;95067.11;109094;1268;22648;-83
2023/04/01 13:22:15;;;;;;;2.00;1.10;;;;;;;11.75;61.82;95062.49;109086;1275;24242;-84
2023/04/01 13:25:00;;;;;;;1.80;0.90;;;;;;;11.61;62.24;95066.16;109027;1275;67527;-84
2023/04/01 13:27:48;;;;;;;2.60;1.50;;;;;;;11.55;62.66;95063.65;109138;1275;22555;-83
2023/04/01 13:30:28;;;;;;;3.30;1.50;;;;;;;11.70;63.32;95061.99;109112;1269;22964;-84
2023/04/01 13:33:16;;;;;;;1.80;0.80;;;;;;;11.81;62.08;95064.63;109090;1267;22626;-84
2023/04/01 13:35:53;;;;;;;2.10;1.20;;;;;;;11.79;61.28;95062.76;109098;1275;22586;-83
2023/04/01 13:38:47;;;;;;;3.70;1.50;;;;;;;11.82;61.41;95066.13;109122;1275;22487;-84
2023/04/01 13:41:33;;;;;;;2.60;1.50;;;;;;;11.87;61.42;95070.13;109050;1272;23697;-83